Time;durP1;ratioP1;P1;durP2;ratioP2;P2;SDS_P1;SDS_P2;PMS_P1;PMS_P2;Temp;Humidity;BMP_temperature;BMP_pressure;BME280_temperature;BME280_humidity;BME280_pressure;Samples;Min_cycle;Max_cycle;Signal;HPM_P1;HPM_P2
2021/04/14 00:01:12;;;;;;;11.00;2.50;;;29.30;85.80;;;;;;5084108;28;20020;-53
2021/04/14 00:03:39;;;;;;;6.90;2.05;;;29.30;85.80;;;;;;5084308;28;20031;-50
2021/04/14 00:06:07;;;;;;;9.88;2.38;;;29.30;85.70;;;;;;5084020;28;20009;-57
2021/04/14 00:08:34;;;;;;;7.75;2.78;;;29.30;85.70;;;;;;5083888;28;20248;-52
2021/04/14 00:11:02;;;;;;;8.07;3.47;;;29.30;85.70;;;;;;5084056;28;20020;-50
2021/04/14 00:13:33;;;;;;;7.05;3.72;;;29.30;85.60;;;;;;5083947;28;20235;-50
2021/04/14 00:16:00;;;;;;;10.18;2.60;;;29.30;85.70;;;;;;5084000;28;20023;-55
2021/04/14 00:18:28;;;;;;;6.03;2.50;;;29.30;85.80;;;;;;5083833;28;20037;-56
2021/04/14 00:20:54;;;;;;;10.85;2.53;;;29.20;85.70;;;;;;5083625;28;20023;-53
2021/04/14 00:23:23;;;;;;;11.77;3.00;;;29.20;85.80;;;;;;5083347;28;20040;-51
2021/04/14 00:25:51;;;;;;;8.07;2.70;;;29.10;85.80;;;;;;5083923;28;20213;-53
2021/04/14 00:28:21;;;;;;;7.68;2.83;;;29.00;85.90;;;;;;5083776;28;20024;-48
2021/04/14 00:30:48;;;;;;;11.82;2.83;;;29.00;86.20;;;;;;5083823;28;20221;-50
2021/04/14 00:33:15;;;;;;;12.63;2.67;;;29.00;86.40;;;;;;5084033;28;20020;-53
2021/04/14 00:35:42;;;;;;;5.72;2.42;;;29.00;86.20;;;;;;5083533;28;20024;-50
2021/04/14 00:38:11;;;;;;;9.90;2.40;;;29.00;86.30;;;;;;5083767;28;20027;-48
2021/04/14 00:40:42;;;;;;;5.38;2.28;;;29.00;86.20;;;;;;5049545;28;20239;-49
2021/04/14 00:43:24;;;;;;;11.60;2.63;;;29.10;86.10;;;;;;5065397;28;20020;-53
2021/04/14 00:45:51;;;;;;;11.32;2.80;;;29.10;86.20;;;;;;5083653;28;20074;-55
2021/04/14 00:48:18;;;;;;;7.65;2.58;;;29.10;86.30;;;;;;5065797;28;20080;-54
2021/04/14 00:50:44;;;;;;;6.72;2.60;;;29.00;86.20;;;;;;5083824;28;20024;-56
2021/04/14 00:53:11;;;;;;;6.78;2.22;;;29.10;86.20;;;;;;5083561;28;20029;-51
2021/04/14 00:55:40;;;;;;;6.90;2.53;;;29.10;86.00;;;;;;5083460;28;20043;-54
2021/04/14 00:58:09;;;;;;;10.63;2.65;;;29.10;86.00;;;;;;5083398;28;20089;-50
2021/04/14 01:00:41;;;;;;;7.30;2.83;;;29.10;86.00;;;;;;5083413;28;20020;-53
2021/04/14 01:03:19;;;;;;;7.28;2.88;;;29.10;86.00;;;;;;5083359;28;20043;-50
2021/04/14 01:05:47;;;;;;;7.60;3.20;;;29.10;86.00;;;;;;5083611;28;20336;-53
2021/04/14 01:08:13;;;;;;;7.18;2.70;;;29.10;86.00;;;;;;5083437;28;20226;-50
2021/04/14 01:10:40;;;;;;;7.35;2.50;;;29.10;85.90;;;;;;5065518;28;20025;-51
2021/04/14 01:13:07;;;;;;;7.20;3.17;;;29.10;86.10;;;;;;5083513;28;20070;-50
2021/04/14 01:15:38;;;;;;;12.30;4.18;;;29.10;86.40;;;;;;5083343;28;20362;-52
2021/04/14 01:18:06;;;;;;;12.32;4.20;;;29.00;86.50;;;;;;5083366;28;20200;-48
2021/04/14 01:20:37;;;;;;;11.02;3.53;;;29.00;86.70;;;;;;5065132;28;20044;-53
2021/04/14 01:23:05;;;;;;;5.85;3.00;;;29.00;87.00;;;;;;5083577;28;20073;-53
2021/04/14 01:25:36;;;;;;;8.93;2.85;;;29.00;87.00;;;;;;5065968;28;20032;-50
2021/04/14 01:28:04;;;;;;;9.07;2.80;;;29.00;87.10;;;;;;5066253;28;20301;-52
2021/04/14 01:30:31;;;;;;;14.38;3.30;;;29.00;87.30;;;;;;5083175;28;20031;-54
2021/04/14 01:32:58;;;;;;;13.15;3.60;;;29.00;87.60;;;;;;5065741;28;20024;-46
2021/04/14 01:35:29;;;;;;;8.93;3.30;;;29.00;87.80;;;;;;5086100;28;20012;-50
2021/04/14 01:38:02;;;;;;;9.30;3.08;;;29.00;88.10;;;;;;5069898;28;20020;-52
2021/04/14 01:40:30;;;;;;;10.40;2.80;;;28.90;88.30;;;;;;5086791;28;20209;-50
2021/04/14 01:42:58;;;;;;;7.32;2.90;;;28.90;88.30;;;;;;5068967;28;20194;-50
2021/04/14 01:45:30;;;;;;;8.88;2.60;;;28.90;88.40;;;;;;5068891;28;20021;-50
2021/04/14 01:47:57;;;;;;;9.05;2.70;;;28.90;88.60;;;;;;5086780;28;20090;-48
2021/04/14 01:50:25;;;;;;;9.98;3.15;;;28.90;88.60;;;;;;5086594;28;20274;-48
2021/04/14 01:52:53;;;;;;;9.05;3.30;;;28.90;88.60;;;;;;5086699;28;20092;-53
2021/04/14 01:55:20;;;;;;;17.92;3.88;;;28.90;88.50;;;;;;5086631;28;20021;-52
2021/04/14 01:57:47;;;;;;;16.27;3.70;;;28.90;88.70;;;;;;5086405;28;20032;-48
2021/04/14 02:00:25;;;;;;;7.50;3.75;;;28.90;88.20;;;;;;5086405;28;20086;-54
2021/04/14 02:02:53;;;;;;;12.25;3.33;;;28.90;88.40;;;;;;5086706;28;20040;-49
2021/04/14 02:05:27;;;;;;;10.02;3.40;;;28.90;88.50;;;;;;5068480;28;20021;-50
2021/04/14 02:07:55;;;;;;;8.52;3.70;;;28.90;88.30;;;;;;5068610;28;20051;-47
2021/04/14 02:10:25;;;;;;;11.73;3.85;;;28.90;88.30;;;;;;5068551;28;20020;-46
2021/04/14 02:12:52;;;;;;;10.35;3.67;;;28.90;88.30;;;;;;5068311;28;20062;-50
2021/04/14 02:15:25;;;;;;;77.80;38.97;;;28.80;88.10;;;;;;5086324;28;20024;-49
2021/04/14 02:17:52;;;;;;;217.48;116.45;;;28.80;88.30;;;;;;5085817;28;20027;-53
2021/04/14 02:20:19;;;;;;;278.42;159.43;;;28.80;88.40;;;;;;5085697;28;20218;-45
2021/04/14 02:22:47;;;;;;;311.92;187.40;;;28.80;88.80;;;;;;5068387;28;20069;-45
2021/04/14 02:25:16;;;;;;;228.75;126.80;;;28.80;88.70;;;;;;5088465;28;20087;-45
2021/04/14 02:27:42;;;;;;;171.70;97.10;;;28.80;89.00;;;;;;5088438;28;20028;-45
2021/04/14 02:30:19;;;;;;;164.63;94.78;;;28.70;89.30;;;;;;5086301;28;20044;-53
2021/04/14 02:32:46;;;;;;;122.05;71.82;;;28.70;89.30;;;;;;5067877;28;20065;-48
2021/04/14 02:35:13;;;;;;;111.63;58.40;;;28.70;89.40;;;;;;5070006;28;20024;-48
2021/04/14 02:37:39;;;;;;;96.10;54.30;;;28.70;89.30;;;;;;5077502;28;20221;-49
2021/04/14 02:40:08;;;;;;;96.05;50.72;;;28.70;89.50;;;;;;5094020;28;20103;-49
2021/04/14 02:42:40;;;;;;;82.72;43.53;;;28.70;89.70;;;;;;5083995;28;20024;-47
2021/04/14 02:45:10;;;;;;;64.97;35.20;;;28.70;89.80;;;;;;5097160;28;20239;-48
2021/04/14 02:47:36;;;;;;;50.00;28.23;;;28.70;89.90;;;;;;5083213;28;20034;-47
2021/04/14 02:50:05;;;;;;;39.42;19.23;;;28.70;89.80;;;;;;5087652;28;20225;-48
2021/04/14 02:52:34;;;;;;;33.30;18.05;;;28.70;89.70;;;;;;5093707;28;20017;-50
2021/04/14 02:55:01;;;;;;;38.28;18.58;;;28.70;89.70;;;;;;5093954;28;20066;-46
2021/04/14 02:57:27;;;;;;;29.48;14.63;;;28.70;90.00;;;;;;5099716;28;20023;-51
2021/04/14 02:59:58;;;;;;;29.80;15.02;;;28.70;90.00;;;;;;5105996;28;20054;-51
2021/04/14 03:02:25;;;;;;;30.50;14.88;;;28.60;90.10;;;;;;5087596;28;20193;-56
2021/04/14 03:04:51;;;;;;;25.73;12.77;;;28.60;90.10;;;;;;5105655;28;20016;-46
2021/04/14 03:07:18;;;;;;;26.92;12.43;;;28.70;90.10;;;;;;5105356;28;20208;-44
2021/04/14 03:09:45;;;;;;;28.45;9.60;;;28.60;90.20;;;;;;5105812;28;20020;-44
2021/04/14 03:12:12;;;;;;;13.50;7.75;;;28.60;90.10;;;;;;5105405;28;20016;-53
2021/04/14 03:14:39;;;;;;;12.43;6.55;;;28.60;90.00;;;;;;5102034;28;20024;-47
2021/04/14 03:17:06;;;;;;;18.13;5.65;;;28.60;90.10;;;;;;5094201;28;20012;-48
2021/04/14 03:19:33;;;;;;;13.32;5.20;;;28.60;90.20;;;;;;5094226;28;20119;-46
2021/04/14 03:22:00;;;;;;;16.75;5.30;;;28.60;90.10;;;;;;5093191;28;20016;-49
2021/04/14 03:24:27;;;;;;;12.95;4.50;;;28.60;90.10;;;;;;5093985;28;20316;-47
2021/04/14 03:26:53;;;;;;;8.30;3.67;;;28.60;90.10;;;;;;5094921;28;20025;-47
2021/04/14 03:29:20;;;;;;;8.82;3.70;;;28.60;90.00;;;;;;5095610;28;20153;-47
2021/04/14 03:31:47;;;;;;;9.25;4.35;;;28.60;90.20;;;;;;5084609;28;20220;-48
2021/04/14 03:34:13;;;;;;;7.85;3.63;;;28.60;90.20;;;;;;5089890;28;20056;-52
2021/04/14 03:36:40;;;;;;;15.43;3.78;;;28.60;90.10;;;;;;5077172;28;20032;-49
2021/04/14 03:39:07;;;;;;;9.05;3.05;;;28.50;90.10;;;;;;5092745;28;20317;-49
2021/04/14 03:41:34;;;;;;;11.45;3.58;;;28.60;90.20;;;;;;5077580;28;20172;-48
2021/04/14 03:44:01;;;;;;;11.00;3.10;;;28.50;90.10;;;;;;5094308;28;20036;-51
2021/04/14 03:46:28;;;;;;;8.13;2.83;;;28.50;90.20;;;;;;5092515;28;20027;-42
2021/04/14 03:48:56;;;;;;;7.57;4.20;;;28.50;90.20;;;;;;5094152;28;20196;-45
2021/04/14 03:51:27;;;;;;;7.65;4.10;;;28.50;90.30;;;;;;5094119;28;20016;-48
2021/04/14 03:53:55;;;;;;;12.98;3.90;;;28.50;90.30;;;;;;5093064;28;20178;-43
2021/04/14 03:56:22;;;;;;;7.82;3.30;;;28.50;90.30;;;;;;5094353;28;20032;-48
2021/04/14 03:58:52;;;;;;;6.40;2.90;;;28.50;90.40;;;;;;5091415;28;20104;-45
2021/04/14 04:01:26;;;;;;;9.20;2.95;;;28.50;90.40;;;;;;5092726;28;20012;-48
2021/04/14 04:03:53;;;;;;;6.80;2.55;;;28.50;90.50;;;;;;5092338;28;20317;-46
2021/04/14 04:06:21;;;;;;;12.02;3.63;;;28.50;90.60;;;;;;5093417;28;20027;-47
2021/04/14 04:08:49;;;;;;;7.20;2.67;;;28.50;90.50;;;;;;5096604;28;20061;-50
2021/04/14 04:11:17;;;;;;;10.00;3.10;;;28.60;90.40;;;;;;5104121;28;20087;-44
2021/04/14 04:13:43;;;;;;;8.75;2.63;;;28.60;90.30;;;;;;5104832;28;20046;-46
2021/04/14 04:16:10;;;;;;;12.23;2.90;;;28.60;90.10;;;;;;5104751;28;20020;-50
2021/04/14 04:18:36;;;;;;;16.65;3.83;;;28.50;90.00;;;;;;5086838;28;20040;-45
2021/04/14 04:21:07;;;;;;;11.10;3.05;;;28.50;89.80;;;;;;5100857;28;20091;-48
2021/04/14 04:23:35;;;;;;;13.32;3.75;;;28.50;90.20;;;;;;5104168;28;20028;-48
2021/04/14 04:26:02;;;;;;;15.40;4.00;;;28.50;90.50;;;;;;5104214;28;20016;-51
2021/04/14 04:28:28;;;;;;;11.45;4.05;;;28.50;90.70;;;;;;5104172;28;20024;-48
2021/04/14 04:30:55;;;;;;;11.38;4.22;;;28.40;91.00;;;;;;5104069;28;20087;-49
2021/04/14 04:33:23;;;;;;;21.77;6.35;;;28.40;91.00;;;;;;5104213;28;20034;-49
2021/04/14 04:35:50;;;;;;;15.30;4.20;;;28.40;91.30;;;;;;5103834;28;20083;-52
2021/04/14 04:38:17;;;;;;;10.40;4.10;;;28.40;91.20;;;;;;5104025;28;20020;-48
2021/04/14 04:40:50;;;;;;;13.27;3.83;;;28.30;91.30;;;;;;5103800;28;20035;-53
2021/04/14 04:43:17;;;;;;;8.43;3.47;;;28.30;91.40;;;;;;5103886;28;20297;-46
2021/04/14 04:45:49;;;;;;;10.77;3.65;;;28.20;91.50;;;;;;5103872;28;20096;-49
2021/04/14 04:48:15;;;;;;;9.52;3.20;;;28.20;91.60;;;;;;5103841;28;20024;-49
2021/04/14 04:50:43;;;;;;;8.63;3.42;;;28.20;91.60;;;;;;5103846;28;20228;-50
2021/04/14 04:53:16;;;;;;;8.88;3.05;;;28.10;91.70;;;;;;5103929;28;20216;-50
2021/04/14 04:55:44;;;;;;;8.43;3.03;;;28.10;91.80;;;;;;5103695;28;20019;-48
2021/04/14 04:58:12;;;;;;;6.57;2.85;;;28.10;91.80;;;;;;5103898;28;20027;-48
2021/04/14 05:00:39;;;;;;;7.35;2.95;;;28.10;91.90;;;;;;5103726;28;20092;-44
2021/04/14 05:03:07;;;;;;;10.13;3.28;;;28.10;91.90;;;;;;5103720;28;20047;-49
2021/04/14 05:05:36;;;;;;;16.17;3.78;;;28.10;91.90;;;;;;5103904;28;20079;-52
2021/04/14 05:08:04;;;;;;;9.55;3.70;;;28.10;92.00;;;;;;5103854;28;20059;-49
2021/04/14 05:10:32;;;;;;;14.20;4.13;;;28.00;92.10;;;;;;5106966;28;20332;-48
2021/04/14 05:12:59;;;;;;;13.90;4.32;;;28.00;92.20;;;;;;5107983;28;20087;-50
2021/04/14 05:15:30;;;;;;;12.88;4.00;;;28.00;92.20;;;;;;5107741;28;20216;-51
2021/04/14 05:17:57;;;;;;;5.45;2.72;;;28.00;92.10;;;;;;5108189;28;20028;-48
2021/04/14 05:20:24;;;;;;;7.18;2.95;;;28.00;92.00;;;;;;5107697;28;20047;-53
2021/04/14 05:22:50;;;;;;;5.97;3.53;;;28.00;91.90;;;;;;5107706;28;20020;-55
2021/04/14 05:25:21;;;;;;;11.45;4.07;;;27.90;91.90;;;;;;5107604;28;20020;-49
2021/04/14 05:27:51;;;;;;;9.13;4.18;;;27.90;91.80;;;;;;5107807;28;20075;-49
2021/04/14 05:30:18;;;;;;;11.75;3.72;;;27.80;91.80;;;;;;5107467;28;20081;-51
2021/04/14 05:32:45;;;;;;;9.02;3.30;;;27.80;91.80;;;;;;5107379;28;20058;-53
2021/04/14 05:35:13;;;;;;;9.70;3.80;;;27.80;91.80;;;;;;5107681;28;20024;-50
2021/04/14 05:37:43;;;;;;;11.13;3.25;;;27.80;91.80;;;;;;5107500;28;20204;-55
2021/04/14 05:40:11;;;;;;;8.93;3.60;;;27.70;91.70;;;;;;5107474;28;20032;-51
2021/04/14 05:42:46;;;;;;;11.85;3.95;;;27.70;91.70;;;;;;5107410;28;20050;-54
2021/04/14 05:45:17;;;;;;;8.85;3.63;;;27.70;91.80;;;;;;5107306;28;20024;-50
2021/04/14 05:47:44;;;;;;;17.52;4.15;;;27.60;91.90;;;;;;5089005;28;20062;-49
2021/04/14 05:50:15;;;;;;;14.70;3.90;;;27.60;92.00;;;;;;5107046;28;20024;-46
2021/04/14 05:52:42;;;;;;;12.65;4.32;;;27.60;92.00;;;;;;5107422;28;20051;-57
2021/04/14 05:55:10;;;;;;;12.50;3.88;;;27.60;92.20;;;;;;5107331;28;20019;-48
2021/04/14 05:57:36;;;;;;;12.75;3.88;;;27.60;92.20;;;;;;5089027;28;20016;-50
2021/04/14 06:00:05;;;;;;;11.30;4.15;;;27.50;92.20;;;;;;5107535;28;20028;-50
2021/04/14 06:02:32;;;;;;;10.57;3.70;;;27.50;92.20;;;;;;5106891;28;20287;-47
2021/04/14 06:04:59;;;;;;;11.65;4.72;;;27.50;92.30;;;;;;5107211;28;20028;-51
2021/04/14 06:07:27;;;;;;;10.95;3.80;;;27.50;92.40;;;;;;5106487;28;20028;-48
2021/04/14 06:09:53;;;;;;;8.23;3.80;;;27.50;92.40;;;;;;5107182;28;20012;-51
2021/04/14 06:12:20;;;;;;;10.10;3.30;;;27.50;92.30;;;;;;5106367;28;20052;-57
2021/04/14 06:14:46;;;;;;;8.88;3.50;;;27.50;92.20;;;;;;5107036;28;20032;-46
2021/04/14 06:17:13;;;;;;;10.82;3.30;;;27.50;92.30;;;;;;5106837;28;20104;-51
2021/04/14 06:19:40;;;;;;;7.88;2.95;;;27.50;92.30;;;;;;5106398;28;20040;-50
2021/04/14 06:22:07;;;;;;;9.43;2.92;;;27.50;92.30;;;;;;5105413;28;20008;-45
2021/04/14 06:24:34;;;;;;;4.63;2.60;;;27.40;92.20;;;;;;5106935;28;20019;-51
2021/04/14 06:27:03;;;;;;;7.10;2.50;;;27.50;92.20;;;;;;5106333;28;20031;-47
2021/04/14 06:29:29;;;;;;;5.97;2.58;;;27.50;92.10;;;;;;5106542;28;20314;-47
2021/04/14 06:31:58;;;;;;;6.18;2.50;;;27.50;92.10;;;;;;5106297;28;20032;-55
2021/04/14 06:34:26;;;;;;;4.38;1.98;;;27.50;92.00;;;;;;5106544;28;20023;-48
2021/04/14 06:36:56;;;;;;;7.65;2.20;;;27.50;92.10;;;;;;5106158;28;20305;-49
2021/04/14 06:39:27;;;;;;;5.38;2.50;;;27.50;92.30;;;;;;5106064;28;20077;-49
2021/04/14 06:42:24;;;;;;;6.72;2.25;;;27.40;92.20;;;;;;5105922;28;20016;-47
2021/04/14 06:44:58;;;;;;;6.35;2.20;;;27.40;92.20;;;;;;5106574;28;20026;-48
2021/04/14 06:47:35;;;;;;;4.97;2.10;;;27.40;92.30;;;;;;5105941;28;20020;-47
2021/04/14 06:50:13;;;;;;;5.40;2.40;;;27.40;92.40;;;;;;5106455;28;20036;-47
2021/04/14 06:52:55;;;;;;;5.53;2.10;;;27.40;92.40;;;;;;5105814;28;20358;-49
2021/04/14 06:55:32;;;;;;;5.35;2.22;;;27.30;92.40;;;;;;5105868;28;20316;-46
2021/04/14 06:58:08;;;;;;;6.20;2.05;;;27.40;92.30;;;;;;5105960;28;20344;-47
2021/04/14 07:00:45;;;;;;;5.43;2.30;;;27.40;92.20;;;;;;5105682;28;20020;-49
2021/04/14 07:03:26;;;;;;;7.15;2.42;;;27.40;92.30;;;;;;5105672;28;20028;-49
2021/04/14 07:06:02;;;;;;;3.80;2.10;;;27.30;92.30;;;;;;5105563;28;20239;-50
2021/04/14 07:08:34;;;;;;;5.68;2.33;;;27.30;92.30;;;;;;5105724;28;20136;-46
2021/04/14 07:11:03;;;;;;;7.63;2.42;;;27.30;92.40;;;;;;5105595;28;20012;-45
2021/04/14 07:13:33;;;;;;;7.10;2.65;;;27.30;92.50;;;;;;5105599;28;20039;-48
2021/04/14 07:16:41;;;;;;;5.28;2.55;;;27.30;92.50;;;;;;5105392;28;20020;-44
2021/04/14 07:19:26;;;;;;;5.78;3.05;;;27.20;92.60;;;;;;5105365;28;20048;-47
2021/04/14 07:22:18;;;;;;;5.32;2.63;;;27.20;92.80;;;;;;5105017;28;20087;-48
2021/04/14 07:25:13;;;;;;;6.28;2.70;;;27.20;92.80;;;;;;5121015;28;20054;-46
2021/04/14 07:27:59;;;;;;;7.20;3.17;;;27.20;92.80;;;;;;5105325;28;20007;-49
2021/04/14 07:30:39;;;;;;;7.45;3.08;;;27.20;92.80;;;;;;5086924;28;20039;-45
2021/04/14 07:33:20;;;;;;;9.40;3.35;;;27.20;93.00;;;;;;5105059;28;20032;-45
2021/04/14 07:36:27;;;;;;;7.55;3.33;;;27.20;93.00;;;;;;5104869;28;20023;-45
2021/04/14 07:39:00;;;;;;;7.95;3.05;;;27.20;93.10;;;;;;5083567;28;20036;-49
2021/04/14 07:41:50;;;;;;;6.13;2.65;;;27.20;93.00;;;;;;5104775;28;20224;-46
2021/04/14 07:44:38;;;;;;;6.68;2.80;;;27.20;92.90;;;;;;5105102;28;20028;-52
2021/04/14 07:47:15;;;;;;;6.07;2.58;;;27.20;92.90;;;;;;5104817;28;20016;-46
2021/04/14 07:49:42;;;;;;;4.45;1.98;;;27.20;92.90;;;;;;5105208;28;20028;-48
2021/04/14 07:52:13;;;;;;;6.00;1.80;;;27.20;92.90;;;;;;5104791;28;20322;-49
2021/04/14 07:54:43;;;;;;;4.43;2.17;;;27.20;92.80;;;;;;5105027;28;20027;-46
2021/04/14 07:57:10;;;;;;;4.32;1.77;;;27.20;92.80;;;;;;5104518;28;20024;-49
2021/04/14 07:59:41;;;;;;;4.35;1.90;;;27.20;92.70;;;;;;5105103;28;20027;-48
2021/04/14 08:02:26;;;;;;;3.17;1.40;;;27.20;92.70;;;;;;5104820;28;20050;-44
2021/04/14 08:05:06;;;;;;;7.65;1.60;;;27.20;92.70;;;;;;5105032;28;20047;-50
2021/04/14 08:07:43;;;;;;;3.15;1.55;;;27.20;92.70;;;;;;5104420;28;20023;-46
2021/04/14 08:10:25;;;;;;;2.40;1.40;;;27.20;92.70;;;;;;5104354;28;20028;-49
2021/04/14 08:13:05;;;;;;;4.45;1.60;;;27.10;92.60;;;;;;5104356;28;20204;-47
2021/04/14 08:15:32;;;;;;;2.63;1.40;;;27.10;92.70;;;;;;5104088;28;20023;-50
2021/04/14 08:18:13;;;;;;;3.20;1.40;;;27.10;92.80;;;;;;5104203;28;20027;-49
2021/04/14 08:20:42;;;;;;;5.53;1.77;;;27.10;92.80;;;;;;5104171;28;20111;-51
2021/04/14 08:23:17;;;;;;;5.05;1.65;;;27.00;92.70;;;;;;5104173;28;20028;-43
2021/04/14 08:25:56;;;;;;;3.13;1.50;;;27.10;92.80;;;;;;5104204;28;20027;-42
2021/04/14 08:28:45;;;;;;;3.42;1.70;;;27.00;92.80;;;;;;5104139;28;20323;-44
2021/04/14 08:31:35;;;;;;;6.25;1.60;;;27.00;93.00;;;;;;5104082;28;20066;-48
2021/04/14 08:34:14;;;;;;;5.70;1.67;;;27.00;92.90;;;;;;5104317;28;20252;-45
2021/04/14 08:36:48;;;;;;;5.10;1.65;;;27.00;92.90;;;;;;5103983;28;20099;-44
2021/04/14 08:39:19;;;;;;;3.40;1.55;;;27.00;92.80;;;;;;5104317;28;20077;-50
2021/04/14 08:41:47;;;;;;;5.60;1.73;;;27.00;92.80;;;;;;5104068;28;20366;-54
2021/04/14 08:44:29;;;;;;;4.85;1.63;;;27.00;92.80;;;;;;5103822;28;20039;-49
2021/04/14 08:47:05;;;;;;;5.55;1.55;;;27.00;92.80;;;;;;5104168;28;20263;-58
2021/04/14 08:49:32;;;;;;;5.32;1.73;;;27.00;92.70;;;;;;5104384;28;20094;-58
2021/04/14 08:51:59;;;;;;;2.72;1.75;;;27.00;92.80;;;;;;5103922;28;20083;-49
2021/04/14 08:54:34;;;;;;;3.33;1.50;;;27.00;92.70;;;;;;5104240;28;20028;-49
2021/04/14 08:57:02;;;;;;;4.32;1.77;;;27.00;92.80;;;;;;5103891;28;20062;-50
2021/04/14 08:59:29;;;;;;;4.13;1.90;;;27.00;92.90;;;;;;5104119;28;20040;-47
2021/04/14 09:01:56;;;;;;;5.32;1.83;;;27.00;92.90;;;;;;5103607;28;20316;-54
2021/04/14 09:04:23;;;;;;;1.77;1.38;;;27.00;92.90;;;;;;5104186;28;20028;-43
2021/04/14 09:06:53;;;;;;;5.85;1.83;;;27.00;92.90;;;;;;5103792;28;20054;-47
2021/04/14 09:09:28;;;;;;;3.60;1.83;;;27.00;93.00;;;;;;5103422;28;20056;-48
2021/04/14 09:12:09;;;;;;;4.68;1.80;;;27.00;93.00;;;;;;5103655;28;20026;-51
2021/04/14 09:14:36;;;;;;;3.42;1.80;;;27.00;93.00;;;;;;5103980;28;20035;-43
2021/04/14 09:17:18;;;;;;;3.75;1.75;;;27.00;93.00;;;;;;5103649;28;20019;-47
2021/04/14 09:19:48;;;;;;;4.22;1.58;;;26.90;93.00;;;;;;5103370;28;20052;-54
2021/04/14 09:22:20;;;;;;;4.60;1.77;;;26.90;92.90;;;;;;5103644;28;20020;-48
2021/04/14 09:24:55;;;;;;;4.28;2.13;;;26.90;93.00;;;;;;5104083;28;20255;-47
2021/04/14 09:27:38;;;;;;;4.88;2.00;;;26.90;93.00;;;;;;5103435;28;20062;-45
2021/04/14 09:30:46;;;;;;;3.97;1.40;;;26.90;93.10;;;;;;5103816;28;20061;-44
2021/04/14 09:33:17;;;;;;;4.20;1.90;;;26.90;93.00;;;;;;5082123;28;20036;-54
2021/04/14 09:35:59;;;;;;;3.92;1.98;;;26.90;93.10;;;;;;5103351;28;20016;-56
2021/04/14 09:38:33;;;;;;;5.38;2.00;;;26.80;93.00;;;;;;5103634;28;20091;-47
2021/04/14 09:41:24;;;;;;;6.43;2.05;;;26.80;93.00;;;;;;5103240;28;20043;-48
2021/04/14 09:43:56;;;;;;;2.50;1.70;;;26.80;93.10;;;;;;5103676;28;20241;-51
2021/04/14 09:46:33;;;;;;;6.45;1.98;;;26.80;93.10;;;;;;5103421;28;20024;-50
2021/04/14 09:49:15;;;;;;;5.22;1.95;;;26.80;93.10;;;;;;5103655;28;20020;-49
2021/04/14 09:51:55;;;;;;;6.65;1.80;;;26.80;93.20;;;;;;5103432;28;20039;-44
2021/04/14 09:54:27;;;;;;;4.60;1.85;;;26.80;93.20;;;;;;5103255;28;20332;-54
2021/04/14 09:56:57;;;;;;;7.38;1.73;;;26.80;93.30;;;;;;5105173;28;20055;-47
2021/04/14 09:59:30;;;;;;;5.65;2.10;;;26.80;93.20;;;;;;5107236;28;20091;-49
2021/04/14 10:02:02;;;;;;;4.05;2.13;;;26.80;93.20;;;;;;5106658;28;20020;-49
2021/04/14 10:04:29;;;;;;;5.45;1.90;;;26.80;93.30;;;;;;5107202;28;20036;-51
2021/04/14 10:07:10;;;;;;;3.92;1.80;;;26.70;93.10;;;;;;5106763;28;20027;-54
2021/04/14 10:09:37;;;;;;;8.15;2.42;;;26.70;93.10;;;;;;5107165;28;20049;-55
2021/04/14 10:12:21;;;;;;;2.35;1.70;;;26.70;93.20;;;;;;5106651;28;20030;-46
2021/04/14 10:15:01;;;;;;;4.93;1.95;;;26.70;93.20;;;;;;5107051;28;20047;-54
2021/04/14 10:17:30;;;;;;;3.35;1.80;;;26.70;93.20;;;;;;5106468;28;20262;-49
2021/04/14 10:20:10;;;;;;;7.68;2.40;;;26.70;93.10;;;;;;5106244;28;20356;-54
2021/04/14 10:22:47;;;;;;;7.38;2.40;;;26.70;93.10;;;;;;5106511;28;20023;-47
2021/04/14 10:25:28;;;;;;;5.05;2.60;;;26.70;93.10;;;;;;5106239;28;20023;-46
2021/04/14 10:28:09;;;;;;;5.18;2.20;;;26.70;93.10;;;;;;5106212;28;20043;-52
2021/04/14 10:30:39;;;;;;;5.75;2.10;;;26.70;93.20;;;;;;5106401;28;20054;-48
2021/04/14 10:33:25;;;;;;;4.72;2.08;;;26.60;93.20;;;;;;5106281;28;20026;-48
2021/04/14 10:35:53;;;;;;;9.02;2.65;;;26.60;93.30;;;;;;5106106;28;20027;-49
2021/04/14 10:38:31;;;;;;;4.60;1.80;;;26.60;93.20;;;;;;5106237;28;20073;-51
2021/04/14 10:41:00;;;;;;;5.43;2.17;;;26.60;93.20;;;;;;5105906;28;20044;-43
2021/04/14 10:43:29;;;;;;;7.10;1.80;;;26.60;93.10;;;;;;5105984;28;20190;-49
2021/04/14 10:46:07;;;;;;;7.85;2.38;;;26.60;93.10;;;;;;5105933;28;20330;-48
2021/04/14 10:48:38;;;;;;;7.80;1.90;;;26.60;93.10;;;;;;5094083;28;20031;-50
2021/04/14 10:51:22;;;;;;;8.00;2.60;;;26.60;93.20;;;;;;5085626;28;20039;-48
2021/04/14 10:53:55;;;;;;;3.92;2.17;;;26.60;93.20;;;;;;5085421;28;20316;-50
2021/04/14 10:56:26;;;;;;;4.38;2.38;;;26.60;93.30;;;;;;5085379;28;20225;-50
2021/04/14 10:58:54;;;;;;;4.18;2.08;;;26.60;93.20;;;;;;5085436;28;20212;-49
2021/04/14 11:01:35;;;;;;;9.80;2.50;;;26.60;93.30;;;;;;5085310;28;20355;-52
2021/04/14 11:04:17;;;;;;;6.15;2.30;;;26.60;93.40;;;;;;5085518;28;20024;-52
2021/04/14 11:06:50;;;;;;;6.03;2.15;;;26.60;93.40;;;;;;5085088;28;20301;-53
2021/04/14 11:09:19;;;;;;;13.07;2.80;;;26.60;93.50;;;;;;5085463;28;20039;-49
2021/04/14 11:11:47;;;;;;;5.57;2.17;;;26.50;93.60;;;;;;5085230;28;20012;-52
2021/04/14 11:14:16;;;;;;;12.90;3.17;;;26.60;93.60;;;;;;5085408;28;20032;-53
2021/04/14 11:16:45;;;;;;;14.90;4.20;;;26.60;93.50;;;;;;5084965;28;20062;-50
2021/04/14 11:19:23;;;;;;;15.05;3.30;;;26.60;93.70;;;;;;5085021;28;20048;-54
2021/04/14 11:22:04;;;;;;;12.88;3.00;;;26.60;93.70;;;;;;5084808;28;20017;-48
2021/04/14 11:24:41;;;;;;;8.23;3.13;;;26.60;94.00;;;;;;5085742;28;20033;-49
2021/04/14 11:27:25;;;;;;;11.50;3.50;;;26.60;93.80;;;;;;5084803;28;20016;-54
2021/04/14 11:29:52;;;;;;;6.90;2.63;;;26.60;93.80;;;;;;5085288;28;20027;-53
2021/04/14 11:32:25;;;;;;;5.82;2.85;;;26.60;93.90;;;;;;5084735;28;20083;-53
2021/04/14 11:35:14;;;;;;;8.20;2.75;;;26.60;94.00;;;;;;5083978;28;20019;-50
2021/04/14 11:37:47;;;;;;;7.95;3.22;;;26.60;94.00;;;;;;5084547;28;20031;-48
2021/04/14 11:40:20;;;;;;;11.27;3.40;;;26.60;93.90;;;;;;5084690;28;20029;-47
2021/04/14 11:42:57;;;;;;;6.68;2.67;;;26.60;94.00;;;;;;5084650;28;20020;-50
2021/04/14 11:45:30;;;;;;;4.15;2.80;;;26.60;93.90;;;;;;5084567;28;20020;-51
2021/04/14 11:48:15;;;;;;;5.72;2.40;;;26.70;94.00;;;;;;5084612;28;20016;-48
2021/04/14 11:50:44;;;;;;;8.57;2.65;;;26.70;94.10;;;;;;5084619;28;20020;-50
2021/04/14 11:53:31;;;;;;;6.82;3.22;;;26.60;94.10;;;;;;5084395;28;20024;-52
2021/04/14 11:56:01;;;;;;;6.90;2.90;;;26.70;94.00;;;;;;5084462;28;20043;-52
2021/04/14 11:58:39;;;;;;;15.80;14.02;;;26.70;94.00;;;;;;5084325;28;20024;-54
2021/04/14 12:01:19;;;;;;;7.25;3.03;;;26.70;94.00;;;;;;5084233;28;20083;-56
2021/04/14 12:03:46;;;;;;;7.15;3.20;;;26.70;94.00;;;;;;5084338;28;20193;-47
2021/04/14 12:06:12;;;;;;;7.15;2.90;;;26.70;94.00;;;;;;5084064;28;20213;-53
2021/04/14 12:08:39;;;;;;;6.57;2.80;;;26.70;94.00;;;;;;5084523;28;20020;-52
2021/04/14 12:11:22;;;;;;;6.35;2.85;;;26.70;94.00;;;;;;5084204;28;20321;-48
2021/04/14 12:13:50;;;;;;;5.15;2.88;;;26.70;94.10;;;;;;5084376;28;20031;-49
2021/04/14 12:16:18;;;;;;;3.78;2.53;;;26.70;93.90;;;;;;5084094;28;20020;-50
2021/04/14 12:18:46;;;;;;;6.57;2.80;;;26.70;93.90;;;;;;5083194;28;20040;-47
2021/04/14 12:21:13;;;;;;;5.13;2.60;;;26.80;93.90;;;;;;5084054;28;20054;-50
2021/04/14 12:23:39;;;;;;;5.70;2.97;;;26.80;93.90;;;;;;5066122;28;20046;-52
2021/04/14 12:26:06;;;;;;;8.65;2.65;;;26.80;93.90;;;;;;5083885;28;20023;-48
2021/04/14 12:28:33;;;;;;;3.65;2.40;;;26.80;93.90;;;;;;5084119;28;20071;-53
2021/04/14 12:31:00;;;;;;;3.78;2.25;;;26.80;93.90;;;;;;5083909;28;20016;-43
2021/04/14 12:33:27;;;;;;;4.72;2.70;;;26.80;93.90;;;;;;5083876;28;20309;-48
2021/04/14 12:35:54;;;;;;;6.53;2.95;;;26.80;93.80;;;;;;5084078;28;20024;-54
2021/04/14 12:38:20;;;;;;;6.35;2.13;;;26.80;93.80;;;;;;5066068;28;20032;-53
2021/04/14 12:40:47;;;;;;;8.52;2.30;;;26.80;93.80;;;;;;5065640;28;20051;-51
2021/04/14 12:43:14;;;;;;;5.05;2.50;;;26.80;94.00;;;;;;5083701;28;20213;-48
2021/04/14 12:45:48;;;;;;;6.07;2.40;;;26.80;93.80;;;;;;5083717;28;20008;-49
2021/04/14 12:48:24;;;;;;;7.85;2.47;;;26.80;93.80;;;;;;5083541;28;20083;-53
2021/04/14 12:51:09;;;;;;;4.57;2.40;;;26.80;93.80;;;;;;5083859;28;20020;-52
2021/04/14 12:54:07;;;;;;;6.50;2.42;;;26.90;93.70;;;;;;5083782;28;20080;-45
2021/04/14 12:56:37;;;;;;;3.85;2.10;;;26.90;93.60;;;;;;5078279;28;20036;-49
2021/04/14 12:59:12;;;;;;;3.92;2.00;;;26.90;93.50;;;;;;5083842;28;20039;-51
2021/04/14 13:01:39;;;;;;;5.30;1.83;;;26.90;93.40;;;;;;5065571;28;20254;-46
2021/04/14 13:04:24;;;;;;;6.30;1.80;;;26.90;93.30;;;;;;5083665;28;20021;-49
2021/04/14 13:06:59;;;;;;;9.50;2.03;;;26.90;93.30;;;;;;5083801;28;20213;-53